createdAt,value
2022-11-13T00:01:43.355Z,77.70
2022-11-13T00:04:28.754Z,78.20
2022-11-13T00:07:14.183Z,77.90
2022-11-13T00:09:59.658Z,78.20
2022-11-13T00:12:44.959Z,77.30
2022-11-13T00:15:30.539Z,77.60
2022-11-13T00:18:15.989Z,77.60
2022-11-13T00:21:06.656Z,77.20
2022-11-13T00:23:52.106Z,77.20
2022-11-13T00:26:37.242Z,76.20
2022-11-13T00:29:22.686Z,75.80
2022-11-13T00:32:08.286Z,75.10
2022-11-13T00:34:53.786Z,74.50
2022-11-13T00:37:39.129Z,74.70
2022-11-13T00:40:24.464Z,75.30
2022-11-13T00:43:10.143Z,75.80
2022-11-13T00:45:55.473Z,75.60
2022-11-13T00:48:40.557Z,75.90
2022-11-13T00:51:26.114Z,76.10
2022-11-13T00:54:11.559Z,76.40
2022-11-13T00:56:56.830Z,77.10
2022-11-13T00:59:42.359Z,76.60
2022-11-13T01:02:27.692Z,77.00
2022-11-13T01:05:13.147Z,77.10
2022-11-13T01:07:58.458Z,77.10
2022-11-13T01:10:53.147Z,77.20
2022-11-13T01:13:44.459Z,77.10
2022-11-13T01:16:29.786Z,77.50
2022-11-13T01:19:15.166Z,79.90
2022-11-13T01:22:00.500Z,80.60
2022-11-13T01:24:45.867Z,80.60
2022-11-13T01:27:31.542Z,80.30
2022-11-13T01:30:17.084Z,80.10
2022-11-13T01:33:02.106Z,80.70
2022-11-13T01:35:47.398Z,80.70
2022-11-13T01:38:36.552Z,80.40
2022-11-13T01:41:31.343Z,82.00
2022-11-13T01:44:18.614Z,83.20
2022-11-13T01:47:04.227Z,82.90
2022-11-13T01:49:53.202Z,82.10
2022-11-13T01:52:42.317Z,82.90
2022-11-13T01:55:28.003Z,82.40
2022-11-13T01:58:13.594Z,83.70
2022-11-13T02:00:59.340Z,82.80
2022-11-13T02:03:44.816Z,83.50
2022-11-13T02:06:40.783Z,84.00
2022-11-13T02:09:30.591Z,84.30
2022-11-13T02:12:21.465Z,85.40
2022-11-13T02:15:08.176Z,85.50
2022-11-13T02:17:59.733Z,86.40
2022-11-13T02:20:50.862Z,87.10
2022-11-13T02:24:11.131Z,87.20
2022-11-13T02:27:01.735Z,87.50
2022-11-13T02:29:47.101Z,87.70
2022-11-13T02:32:32.426Z,88.40
2022-11-13T02:35:31.993Z,87.90
2022-11-13T02:38:17.167Z,88.70
2022-11-13T02:41:02.893Z,89.10
2022-11-13T02:43:47.851Z,87.90
2022-11-13T02:46:34.498Z,87.90
2022-11-13T02:49:19.922Z,88.50
2022-11-13T02:52:05.243Z,89.10
2022-11-13T02:54:50.664Z,86.70
2022-11-13T02:57:36.348Z,85.20
2022-11-13T03:00:21.879Z,83.90
2022-11-13T03:03:07.263Z,83.00
2022-11-13T03:05:52.768Z,81.60
2022-11-13T03:08:38.494Z,81.80
2022-11-13T03:11:24.001Z,81.10
2022-11-13T03:14:09.847Z,80.70
2022-11-13T03:16:55.135Z,79.90
2022-11-13T03:19:40.470Z,78.70
2022-11-13T03:22:26.337Z,77.60
2022-11-13T03:25:11.806Z,76.70
2022-11-13T03:27:57.214Z,76.40
2022-11-13T03:30:43.689Z,75.40
2022-11-13T03:33:29.506Z,74.60
2022-11-13T03:36:14.657Z,74.70
2022-11-13T03:39:00.047Z,74.10
2022-11-13T03:41:45.295Z,73.90
2022-11-13T03:44:30.719Z,73.90
2022-11-13T03:47:16.349Z,73.50
2022-11-13T03:50:01.578Z,73.60
2022-11-13T03:52:46.873Z,73.30
2022-11-13T03:55:32.522Z,73.20
2022-11-13T03:58:17.856Z,73.90
2022-11-13T04:01:03.235Z,73.90
2022-11-13T04:03:48.733Z,74.10
2022-11-13T04:06:34.021Z,74.00
2022-11-13T04:09:19.566Z,74.10
2022-11-13T04:12:05.547Z,74.00
2022-11-13T04:14:50.733Z,73.70
2022-11-13T04:17:36.157Z,73.70
2022-11-13T04:20:21.647Z,72.90
2022-11-13T04:23:11.357Z,72.50
2022-11-13T04:25:56.607Z,73.20
2022-11-13T04:28:41.893Z,71.00
2022-11-13T04:31:27.307Z,70.80
2022-11-13T04:34:12.847Z,71.20
2022-11-13T04:36:58.136Z,70.30
2022-11-13T04:39:43.487Z,70.90
2022-11-13T04:42:47.345Z,70.20
2022-11-13T04:45:32.820Z,69.10
2022-11-13T04:48:18.121Z,70.20
2022-11-13T04:51:03.599Z,69.40
2022-11-13T04:53:49.122Z,68.70
2022-11-13T04:56:34.430Z,68.10
2022-11-13T04:59:20.097Z,68.70
2022-11-13T05:02:05.139Z,68.00
2022-11-13T05:04:50.728Z,68.00
2022-11-13T05:07:36.659Z,67.40
2022-11-13T05:10:22.048Z,67.10
2022-11-13T05:13:07.273Z,67.30
2022-11-13T05:16:01.082Z,67.20
2022-11-13T05:18:46.527Z,67.10
2022-11-13T05:21:31.566Z,67.00
2022-11-13T05:24:16.951Z,66.70
2022-11-13T05:27:02.311Z,67.00
2022-11-13T05:29:47.811Z,67.00
2022-11-13T05:32:33.168Z,66.70
2022-11-13T05:35:18.537Z,66.60
2022-11-13T05:38:03.933Z,66.60
2022-11-13T05:40:49.248Z,66.90
2022-11-13T05:43:35.651Z,66.50
2022-11-13T05:46:26.741Z,66.60
2022-11-13T05:49:12.047Z,66.10
2022-11-13T05:51:57.523Z,66.30
2022-11-13T05:54:42.890Z,66.60
2022-11-13T05:57:28.279Z,66.70
2022-11-13T06:00:14.578Z,67.00
2022-11-13T06:03:00.229Z,67.00
2022-11-13T06:05:45.623Z,66.40
2022-11-13T06:08:31.396Z,66.20
2022-11-13T06:11:19.547Z,65.80
2022-11-13T06:14:04.779Z,65.60
2022-11-13T06:16:50.002Z,65.50
2022-11-13T06:19:35.388Z,65.40
2022-11-13T06:22:20.928Z,65.00
2022-11-13T06:25:06.699Z,65.40
2022-11-13T06:27:53.192Z,65.50
2022-11-13T06:30:38.495Z,65.50
2022-11-13T06:33:23.732Z,65.30
2022-11-13T06:36:12.966Z,65.20
2022-11-13T06:38:58.527Z,64.80
2022-11-13T06:41:43.515Z,64.90
2022-11-13T06:44:29.001Z,64.60
2022-11-13T06:47:14.319Z,64.50
2022-11-13T06:49:59.698Z,64.70
2022-11-13T06:52:44.998Z,64.90
2022-11-13T06:55:30.367Z,65.30
2022-11-13T06:58:16.150Z,65.20
2022-11-13T07:01:13.618Z,64.60
2022-11-13T07:03:58.910Z,64.80
2022-11-13T07:06:44.392Z,64.30
2022-11-13T07:09:30.610Z,64.30
2022-11-13T07:12:15.607Z,64.30
2022-11-13T07:15:00.984Z,64.50
2022-11-13T07:17:46.425Z,64.70
2022-11-13T07:20:32.303Z,64.80
2022-11-13T07:23:17.376Z,65.20
2022-11-13T07:26:04.032Z,65.80
2022-11-13T07:28:49.835Z,65.10
2022-11-13T07:31:35.268Z,65.00
2022-11-13T07:34:20.697Z,64.50
2022-11-13T07:37:08.848Z,63.80
2022-11-13T07:39:53.985Z,63.80
2022-11-13T07:42:39.826Z,63.80
2022-11-13T07:45:25.797Z,63.60
2022-11-13T07:48:11.404Z,63.40
2022-11-13T07:51:00.212Z,63.40
2022-11-13T07:53:45.614Z,63.20
2022-11-13T07:56:30.907Z,63.10
2022-11-13T07:59:16.330Z,62.90
2022-11-13T08:02:01.815Z,62.70
2022-11-13T08:04:47.243Z,63.30
2022-11-13T08:07:32.639Z,63.60
2022-11-13T08:10:19.102Z,62.10
2022-11-13T08:13:07.192Z,62.00
2022-11-13T08:15:52.395Z,61.80
2022-11-13T08:18:37.773Z,60.10
2022-11-13T08:21:23.569Z,60.20
2022-11-13T08:24:09.902Z,60.10
2022-11-13T08:26:55.259Z,61.00
2022-11-13T08:29:40.675Z,60.90
2022-11-13T08:32:26.319Z,61.30
2022-11-13T08:35:13.712Z,61.20
2022-11-13T08:38:04.624Z,60.40
2022-11-13T08:40:50.371Z,60.50
2022-11-13T08:43:35.791Z,59.50
2022-11-13T08:46:21.382Z,59.30
2022-11-13T08:49:06.696Z,58.80
2022-11-13T08:51:52.065Z,58.60
2022-11-13T08:54:37.439Z,57.90
2022-11-13T08:57:22.948Z,57.10
2022-11-13T09:00:08.985Z,57.00
2022-11-13T09:02:59.308Z,56.60
2022-11-13T09:05:44.605Z,56.40
2022-11-13T09:08:31.920Z,55.70
2022-11-13T09:11:17.044Z,54.40
2022-11-13T09:14:02.638Z,55.10
2022-11-13T09:16:47.730Z,54.20
2022-11-13T09:19:33.142Z,54.70
2022-11-13T09:22:18.505Z,54.50
2022-11-13T09:25:03.921Z,54.10
2022-11-13T09:27:57.358Z,54.30
2022-11-13T09:30:42.821Z,53.10
2022-11-13T09:33:28.107Z,53.00
2022-11-13T09:36:15.630Z,54.40
2022-11-13T09:39:00.858Z,53.70
2022-11-13T09:41:58.010Z,53.40
2022-11-13T09:44:50.963Z,53.80
2022-11-13T09:47:56.290Z,53.60
2022-11-13T09:50:42.082Z,52.80
2022-11-13T09:53:34.455Z,54.00
2022-11-13T09:56:35.761Z,53.00
2022-11-13T09:59:42.150Z,52.50
2022-11-13T10:03:06.579Z,52.20
2022-11-13T10:06:03.309Z,53.30
2022-11-13T10:08:56.888Z,54.00
2022-11-13T10:12:04.494Z,52.30
2022-11-13T10:14:52.745Z,53.20
2022-11-13T10:17:56.352Z,52.30
2022-11-13T10:21:08.291Z,53.30
2022-11-13T10:23:57.154Z,53.00
2022-11-13T10:26:42.605Z,52.60
2022-11-13T10:29:29.562Z,54.20
2022-11-13T10:32:27.173Z,54.20
2022-11-13T10:35:12.653Z,53.90
2022-11-13T10:38:19.373Z,53.80
2022-11-13T10:41:10.945Z,52.20
2022-11-13T10:44:05.394Z,53.50
2022-11-13T10:46:50.461Z,52.70
2022-11-13T10:49:35.966Z,51.70
2022-11-13T10:52:23.518Z,53.40
2022-11-13T10:55:33.927Z,52.70
2022-11-13T10:58:19.737Z,52.90
2022-11-13T11:01:26.400Z,53.50
2022-11-13T11:04:20.576Z,52.90
2022-11-13T11:07:22.046Z,52.30
2022-11-13T11:10:25.647Z,52.10
2022-11-13T11:13:20.255Z,52.70
2022-11-13T11:16:07.482Z,53.20
2022-11-13T11:19:06.756Z,52.30
2022-11-13T11:22:05.339Z,52.70
2022-11-13T11:25:20.565Z,52.20
2022-11-13T11:28:19.826Z,52.00
2022-11-13T11:31:15.313Z,53.20
2022-11-13T11:34:05.902Z,51.70
2022-11-13T11:37:11.693Z,52.50
2022-11-13T11:40:05.143Z,52.10
2022-11-13T11:43:29.069Z,52.60
2022-11-13T11:46:20.703Z,51.70
2022-11-13T11:49:06.237Z,52.00
2022-11-13T11:52:45.675Z,51.20
2022-11-13T11:55:57.115Z,51.70
2022-11-13T11:59:06.173Z,52.50
2022-11-13T12:02:06.568Z,51.60
2022-11-13T12:05:20.790Z,51.20
2022-11-13T12:08:35.548Z,51.30
2022-11-13T12:11:31.909Z,50.80
2022-11-13T12:14:32.768Z,51.10
2022-11-13T12:17:55.937Z,50.80
2022-11-13T12:20:56.239Z,50.20
2022-11-13T12:24:08.040Z,50.40
2022-11-13T12:27:17.875Z,49.80
2022-11-13T12:30:16.681Z,49.60
2022-11-13T12:33:11.504Z,50.20
2022-11-13T12:35:56.920Z,50.60
2022-11-13T12:38:56.910Z,49.30
2022-11-13T12:41:54.778Z,48.50
2022-11-13T12:45:05.775Z,49.10
2022-11-13T12:47:52.085Z,48.30
2022-11-13T12:50:37.427Z,49.20
2022-11-13T12:53:45.090Z,49.50
2022-11-13T12:56:32.630Z,49.30
2022-11-13T12:59:30.739Z,50.50
2022-11-13T13:02:44.487Z,50.20
2022-11-13T13:06:00.935Z,49.50
2022-11-13T13:09:09.328Z,50.00
2022-11-13T13:12:07.415Z,50.20
2022-11-13T13:15:12.275Z,51.20
2022-11-13T13:18:05.463Z,50.50
2022-11-13T13:20:57.098Z,51.50
2022-11-13T13:23:49.503Z,51.20
2022-11-13T13:26:45.283Z,50.50
2022-11-13T13:29:33.270Z,49.40
2022-11-13T13:32:45.953Z,49.60
2022-11-13T13:35:40.958Z,52.70
2022-11-13T13:38:38.311Z,56.50
2022-11-13T13:41:41.966Z,56.60
2022-11-13T13:44:48.236Z,53.60
2022-11-13T13:47:40.110Z,53.80
2022-11-13T13:50:32.234Z,52.00
2022-11-13T13:53:23.544Z,54.00
2022-11-13T13:56:11.933Z,54.70
2022-11-13T13:58:59.304Z,55.40
2022-11-13T14:01:58.413Z,61.70
2022-11-13T14:04:52.404Z,64.40
2022-11-13T14:07:45.836Z,67.30
2022-11-13T14:10:31.301Z,68.30
2022-11-13T14:13:24.919Z,68.80
2022-11-13T14:16:10.536Z,69.70
2022-11-13T14:19:05.486Z,69.70
2022-11-13T14:21:57.180Z,69.10
2022-11-13T14:24:53.673Z,69.70
2022-11-13T14:27:39.207Z,69.40
2022-11-13T14:30:30.267Z,69.90
2022-11-13T14:33:22.048Z,70.00
2022-11-13T14:36:08.172Z,70.50
2022-11-13T14:38:54.120Z,71.70
2022-11-13T14:41:47.295Z,71.70
2022-11-13T14:44:34.934Z,72.50
2022-11-13T14:47:23.136Z,74.20
2022-11-13T14:50:22.221Z,73.60
2022-11-13T14:53:09.811Z,73.20
2022-11-13T14:55:58.079Z,73.30
2022-11-13T14:58:47.325Z,74.50
2022-11-13T15:01:33.436Z,74.40
2022-11-13T15:04:18.822Z,75.10
2022-11-13T15:07:38.766Z,75.70
2022-11-13T15:10:27.200Z,76.30
2022-11-13T15:13:13.996Z,77.10
2022-11-13T15:15:59.427Z,76.90
2022-11-13T15:18:55.327Z,77.70
2022-11-13T15:21:41.087Z,78.90
2022-11-13T15:24:26.615Z,74.70
2022-11-13T15:27:18.645Z,75.60
2022-11-13T15:30:04.492Z,76.20
2022-11-13T15:32:53.744Z,77.80
2022-11-13T15:35:39.005Z,78.60
2022-11-13T15:38:24.451Z,79.20
2022-11-13T15:41:15.030Z,80.10
2022-11-13T15:44:02.432Z,81.30
2022-11-13T15:46:47.605Z,81.80
2022-11-13T15:49:33.072Z,82.90
2022-11-13T15:52:18.633Z,82.90
2022-11-13T15:55:13.060Z,83.20
2022-11-13T15:57:59.583Z,83.80
2022-11-13T16:00:45.945Z,84.10
2022-11-13T16:03:32.201Z,83.90
2022-11-13T16:06:23.078Z,83.80
2022-11-13T16:09:13.730Z,84.60
2022-11-13T16:12:01.380Z,85.00
2022-11-13T16:14:47.269Z,85.50
2022-11-13T16:17:39.895Z,85.90
2022-11-13T16:20:25.390Z,85.90
2022-11-13T16:23:16.883Z,86.80
2022-11-13T16:26:04.548Z,87.40
2022-11-13T16:32:00.277Z,87.10
2022-11-13T16:34:46.467Z,87.70
2022-11-13T16:37:31.538Z,88.10
2022-11-13T16:40:26.224Z,88.80
2022-11-13T16:43:11.846Z,89.10
2022-11-13T16:45:59.827Z,89.50
2022-11-13T16:48:45.302Z,90.00
2022-11-13T16:51:30.810Z,89.80
2022-11-13T16:54:16.273Z,89.80
2022-11-13T16:57:01.683Z,90.20
2022-11-13T16:59:47.215Z,90.50
2022-11-13T17:02:32.851Z,90.40
2022-11-13T17:05:18.710Z,91.30
2022-11-13T17:08:05.901Z,91.10
2022-11-13T17:10:58.412Z,90.70
2022-11-13T17:13:44.215Z,90.20
2022-11-13T17:16:31.071Z,90.10
2022-11-13T17:19:16.368Z,91.10
2022-11-13T17:22:01.792Z,90.70
2022-11-13T17:24:47.531Z,90.00
2022-11-13T17:27:32.923Z,91.10
2022-11-13T17:30:18.287Z,91.10
2022-11-13T17:33:03.709Z,91.20
2022-11-13T17:35:56.238Z,92.10
2022-11-13T17:38:42.082Z,92.10
2022-11-13T17:41:27.451Z,92.40
2022-11-13T17:44:12.921Z,91.90
2022-11-13T17:46:58.312Z,92.60
2022-11-13T17:49:43.693Z,93.10
2022-11-13T17:52:29.069Z,93.20
2022-11-13T17:55:14.547Z,93.00
2022-11-13T17:58:00.848Z,93.50
2022-11-13T18:00:46.097Z,93.30
2022-11-13T18:03:32.208Z,92.80
2022-11-13T18:06:19.999Z,93.00
2022-11-13T18:09:06.283Z,93.30
2022-11-13T18:11:51.449Z,92.90
2022-11-13T18:14:36.934Z,93.80
2022-11-13T18:17:22.801Z,94.30
2022-11-13T18:20:08.509Z,94.10
2022-11-13T18:22:54.440Z,94.60
2022-11-13T18:25:40.000Z,94.70
2022-11-13T18:28:25.503Z,94.90
2022-11-13T18:31:13.478Z,95.30
2022-11-13T18:34:00.218Z,95.20
2022-11-13T18:36:45.790Z,95.90
2022-11-13T18:39:31.103Z,95.20
2022-11-13T18:42:16.395Z,94.80
2022-11-13T18:45:06.016Z,95.40
2022-11-13T18:47:51.370Z,95.50
2022-11-13T18:50:36.885Z,95.80
2022-11-13T18:53:22.440Z,96.10
2022-11-13T18:56:11.574Z,96.30
2022-11-13T18:58:58.591Z,96.70
2022-11-13T19:01:43.962Z,96.50
2022-11-13T19:04:29.268Z,96.20
2022-11-13T19:07:14.911Z,96.20
2022-11-13T19:10:00.470Z,96.60
2022-11-13T19:12:45.845Z,96.50
2022-11-13T19:15:31.365Z,96.50
2022-11-13T19:18:16.731Z,96.60
2022-11-13T19:21:07.410Z,96.40
2022-11-13T19:23:53.168Z,96.10
2022-11-13T19:26:38.933Z,96.20
2022-11-13T19:29:24.395Z,96.00
2022-11-13T19:32:09.760Z,95.90
2022-11-13T19:34:55.051Z,96.00
2022-11-13T19:37:40.556Z,95.70
2022-11-13T19:40:25.766Z,95.90
2022-11-13T19:43:11.195Z,96.20
2022-11-13T19:45:56.455Z,96.50
2022-11-13T19:48:44.250Z,96.50
2022-11-13T19:51:29.396Z,96.40
2022-11-13T19:54:16.511Z,96.30
2022-11-13T19:57:01.554Z,96.20
2022-11-13T19:59:46.914Z,96.30
2022-11-13T20:02:32.532Z,94.80
2022-11-13T20:05:18.027Z,92.70
2022-11-13T20:08:03.328Z,93.80
2022-11-13T20:10:48.837Z,90.10
2022-11-13T20:13:36.534Z,88.60
2022-11-13T20:16:23.345Z,84.80
2022-11-13T20:19:08.450Z,84.70
2022-11-13T20:21:53.834Z,84.80
2022-11-13T20:24:39.496Z,87.60
2022-11-13T20:27:24.951Z,84.60
2022-11-13T20:30:11.094Z,84.60
2022-11-13T20:32:56.643Z,84.30
2022-11-13T20:35:42.200Z,84.10
2022-11-13T20:38:27.913Z,84.50
2022-11-13T20:41:13.689Z,82.70
2022-11-13T20:44:01.804Z,81.90
2022-11-13T20:46:47.276Z,80.30
2022-11-13T20:49:32.543Z,77.30
2022-11-13T20:52:18.048Z,75.60
2022-11-13T20:55:03.598Z,72.70
2022-11-13T20:57:49.195Z,72.30
2022-11-13T21:00:34.587Z,72.50
2022-11-13T21:03:20.149Z,71.80
2022-11-13T21:06:06.187Z,71.70
2022-11-13T21:08:53.478Z,71.10
2022-11-13T21:11:39.243Z,71.90
2022-11-13T21:14:24.384Z,70.30
2022-11-13T21:17:09.855Z,70.90
2022-11-13T21:19:57.501Z,70.20
2022-11-13T21:22:43.149Z,70.50
2022-11-13T21:25:28.906Z,70.30
2022-11-13T21:28:13.895Z,70.50
2022-11-13T21:31:07.473Z,71.20
2022-11-13T21:33:53.993Z,73.00
2022-11-13T21:36:39.172Z,73.70
2022-11-13T21:39:24.718Z,73.70
2022-11-13T21:42:10.039Z,73.80
2022-11-13T21:44:55.396Z,73.60
2022-11-13T21:47:40.809Z,73.90
2022-11-13T21:50:26.270Z,74.30
2022-11-13T21:53:12.262Z,77.70
2022-11-13T21:55:57.329Z,78.50
2022-11-13T21:58:43.176Z,79.80
2022-11-13T22:01:36.514Z,76.30
2022-11-13T22:04:23.247Z,74.20
2022-11-13T22:07:08.835Z,73.00
2022-11-13T22:09:54.390Z,71.90
2022-11-13T22:12:39.456Z,71.40
2022-11-13T22:15:24.882Z,71.10
2022-11-13T22:18:10.250Z,70.50
2022-11-13T22:21:03.894Z,69.70
2022-11-13T22:23:49.469Z,69.60
2022-11-13T22:26:45.656Z,69.50
2022-11-13T22:29:31.107Z,69.90
2022-11-13T22:32:16.101Z,70.30
2022-11-13T22:35:01.398Z,69.80
2022-11-13T22:37:46.825Z,69.90
2022-11-13T22:40:33.023Z,70.00
2022-11-13T22:43:18.262Z,70.20
2022-11-13T22:46:09.364Z,70.30
2022-11-13T22:48:55.710Z,71.30
2022-11-13T22:51:41.581Z,70.90
2022-11-13T22:54:26.699Z,71.10
2022-11-13T22:57:12.116Z,71.00
2022-11-13T22:59:57.601Z,71.00
2022-11-13T23:02:47.099Z,70.50
2022-11-13T23:05:35.890Z,70.50
2022-11-13T23:08:21.161Z,71.30
2022-11-13T23:11:09.630Z,71.70
2022-11-13T23:13:57.162Z,71.50
2022-11-13T23:16:42.862Z,72.20
2022-11-13T23:19:27.940Z,72.30
2022-11-13T23:22:13.245Z,72.10
2022-11-13T23:24:58.790Z,72.00
2022-11-13T23:27:44.083Z,71.90
2022-11-13T23:30:29.673Z,72.00
2022-11-13T23:33:15.336Z,71.90
2022-11-13T23:36:00.898Z,71.70
2022-11-13T23:38:46.336Z,72.10
2022-11-13T23:41:31.623Z,72.10
2022-11-13T23:44:17.125Z,72.50
2022-11-13T23:47:03.171Z,72.70
2022-11-13T23:49:48.210Z,72.40
2022-11-13T23:52:33.700Z,73.00
2022-11-13T23:55:19.450Z,72.70
2022-11-13T23:58:06.278Z,73.30
